• Join FlightAware (Why Join?)
  • Login
  • US Flag 
09:57PM EDT


 

Airport Tracker/Info


-or-


 

Live Flight TrackerFlight Track Log ✈ LYM1725 ✈ 11-May-2013 ✈ KDEN - KLAR

Flight Track Log - Related Links

Times and Time Zones

All times are in EDT time to prevent confusion due to time zone crossing. See the LYM1725 flight status page for this flight to view local times or setup timezone preferences in your user account.

Time Position Orientation Groundspeed Altitude Reporting Facility
EDT Latitude Longitude Course Direction KTS MPH feet Rate Location/Type
09:23AM 39.9083 -104.7075 341° North 182 209 6,400  Level Denver Center
09:24AM 39.9614 -104.7319 341° North 198 228 7,800 1,200 Climbing Denver Center
09:25AM 40.0278 -104.7575 344° North 212 244 9,100 1,080 Climbing Denver Center
09:26AM 40.0919 -104.7819 344° North 222 255 10,100 900 Climbing Denver Center
09:27AM 40.1517 -104.8072 342° North 225 259 11,000 900 Climbing Denver Center
09:28AM 40.2106 -104.8342 341° North 224 258 12,000 1,080 Climbing Denver Center
09:29AM 40.2664 -104.8611 340° North 215 247 13,200 1,140 Climbing Denver Center
09:30AM 40.3244 -104.8808 345° North 217 250 14,300 1,020 Climbing Denver Center
09:31AM 40.3814 -104.9053 342° North 215 247 15,300 780 Climbing Denver Center
09:32AM 40.4406 -104.9336 340° North 213 245 16,000 360 Climbing Denver Center
09:33AM 40.5017 -104.9558 345° North 225 259 16,100 60 Climbing Denver Center
09:34AM 40.5656 -104.9764 346° North 236 272 16,200  Climbing Denver Center
09:35AM 40.6292 -105.0036 342° North 241 277 16,100 -120 Descending Denver Center
09:36AM 40.6950 -105.0275 345° North 245 282 16,000  Descending Denver Center
09:37AM 40.7583 -105.0597 339° North 239 275 16,100  Climbing Denver Center
09:38AM 40.8081 -105.1097 323° Northwest 236 272 16,000  Descending Denver Center
09:39AM 40.8658 -105.1758 319° Northwest 242 278 16,100 -480 Climbing Denver Center
09:40AM 40.9172 -105.2297 322° Northwest 244 281 15,100 -960 Descending Denver Center
09:41AM 40.9711 -105.2889 320° Northwest 251 289 14,200 -1,020 Descending Denver Center
09:42AM 41.0356 -105.3611 320° Northwest 261 300 13,100 -1,080 Descending Denver Center
09:43AM 41.0894 -105.4261 318° Northwest 266 306 12,100 -1,020 Descending Denver Center